createdAt,value
2018-05-31T00:01:22.886Z,9.40
2018-05-31T00:02:22.772Z,9.10
2018-05-31T00:04:15.593Z,9.20
2018-05-31T00:05:15.510Z,8.80
2018-05-31T00:07:08.388Z,9.70
2018-05-31T00:08:08.280Z,9.10
2018-05-31T00:10:01.098Z,8.90
2018-05-31T00:11:00.998Z,8.50
2018-05-31T00:12:53.914Z,9.00
2018-05-31T00:13:53.750Z,9.20
2018-05-31T00:15:46.600Z,9.20
2018-05-31T00:16:46.508Z,9.50
2018-05-31T00:18:39.381Z,9.40
2018-05-31T00:19:39.305Z,9.20
2018-05-31T00:21:32.113Z,9.50
2018-05-31T00:22:32.007Z,8.80
2018-05-31T00:24:24.870Z,9.30
2018-05-31T00:25:24.756Z,9.50
2018-05-31T00:27:17.625Z,10.30
2018-05-31T00:28:17.532Z,9.40
2018-05-31T00:30:10.371Z,11.00
2018-05-31T00:31:10.247Z,9.30
2018-05-31T00:33:03.094Z,9.90
2018-05-31T00:34:03.027Z,9.80
2018-05-31T00:35:55.891Z,9.70
2018-05-31T00:36:55.747Z,10.00
2018-05-31T00:38:48.611Z,10.70
2018-05-31T00:39:48.501Z,10.30
2018-05-31T00:41:41.344Z,11.20
2018-05-31T00:42:41.260Z,10.00
2018-05-31T00:44:34.128Z,10.00
2018-05-31T00:45:34.014Z,9.50
2018-05-31T00:47:26.855Z,9.50
2018-05-31T00:48:26.751Z,9.50
2018-05-31T00:50:19.621Z,10.70
2018-05-31T00:51:19.500Z,10.40
2018-05-31T00:53:12.353Z,10.30
2018-05-31T00:54:12.244Z,10.10
2018-05-31T00:56:05.113Z,11.10
2018-05-31T00:57:04.998Z,10.40
2018-05-31T00:58:57.871Z,10.30
2018-05-31T00:59:57.745Z,10.00
2018-05-31T01:01:50.600Z,10.00
2018-05-31T01:02:50.513Z,9.80
2018-05-31T01:04:43.346Z,9.90
2018-05-31T01:05:43.267Z,10.80
2018-05-31T01:07:36.307Z,10.30
2018-05-31T01:08:36.215Z,11.50
2018-05-31T01:10:29.040Z,10.20
2018-05-31T01:11:28.951Z,10.00
2018-05-31T01:13:21.807Z,10.80
2018-05-31T01:14:21.697Z,10.50
2018-05-31T01:16:14.672Z,10.60
2018-05-31T01:17:14.582Z,12.20
2018-05-31T01:19:07.507Z,10.20
2018-05-31T01:20:07.432Z,10.80
2018-05-31T01:22:00.403Z,10.90
2018-05-31T01:23:00.273Z,11.00
2018-05-31T01:24:53.196Z,11.10
2018-05-31T01:25:53.101Z,10.90
2018-05-31T01:27:46.497Z,11.10
2018-05-31T01:28:46.381Z,10.30
2018-05-31T01:30:39.733Z,10.60
2018-05-31T01:31:39.230Z,10.70
2018-05-31T01:33:32.181Z,11.00
2018-05-31T01:34:32.092Z,13.50
2018-05-31T01:36:25.035Z,11.30
2018-05-31T01:37:24.921Z,11.50
2018-05-31T01:39:17.900Z,11.10
2018-05-31T01:40:17.777Z,10.60
2018-05-31T01:42:10.717Z,10.10
2018-05-31T01:43:10.630Z,10.90
2018-05-31T01:45:03.598Z,10.50
2018-05-31T01:46:03.474Z,10.20
2018-05-31T01:47:56.435Z,11.60
2018-05-31T01:48:56.337Z,10.70
2018-05-31T01:50:49.711Z,11.40
2018-05-31T01:51:49.602Z,11.90
2018-05-31T01:53:42.541Z,11.40
2018-05-31T01:54:42.455Z,11.30
2018-05-31T01:56:35.397Z,11.80
2018-05-31T01:57:35.294Z,12.00
2018-05-31T01:59:28.286Z,10.90
2018-05-31T02:00:28.147Z,12.00
2018-05-31T02:02:21.125Z,11.40
2018-05-31T02:03:21.010Z,10.70
2018-05-31T02:05:13.959Z,11.00
2018-05-31T02:06:13.849Z,11.70
2018-05-31T02:08:06.805Z,11.70
2018-05-31T02:09:06.715Z,11.80
2018-05-31T02:11:00.084Z,12.00
2018-05-31T02:11:59.563Z,11.30
2018-05-31T02:13:52.650Z,12.50
2018-05-31T02:14:52.414Z,11.50
2018-05-31T02:16:45.353Z,11.30
2018-05-31T02:17:45.276Z,11.50
2018-05-31T02:19:39.689Z,10.80
2018-05-31T02:20:39.562Z,13.30
2018-05-31T02:22:32.503Z,11.50
2018-05-31T02:23:32.419Z,11.20
2018-05-31T02:25:26.284Z,10.90
2018-05-31T02:26:25.863Z,11.60
2018-05-31T02:28:18.801Z,11.40
2018-05-31T02:29:18.710Z,11.20
2018-05-31T02:31:11.691Z,11.40
2018-05-31T02:32:11.568Z,10.90
2018-05-31T02:34:04.505Z,11.30
2018-05-31T02:35:04.417Z,11.30
2018-05-31T02:36:57.397Z,13.10
2018-05-31T02:37:57.286Z,12.30
2018-05-31T02:39:50.216Z,12.70
2018-05-31T02:40:50.124Z,15.30
2018-05-31T02:42:43.084Z,13.10
2018-05-31T02:43:42.987Z,13.40
2018-05-31T02:45:35.940Z,12.00
2018-05-31T02:46:35.827Z,12.80
2018-05-31T02:48:28.772Z,14.30
2018-05-31T02:49:28.700Z,12.50
2018-05-31T02:51:21.639Z,12.40
2018-05-31T02:52:21.531Z,14.80
2018-05-31T02:54:14.491Z,12.40
2018-05-31T02:55:14.400Z,13.20
2018-05-31T02:57:07.347Z,14.80
2018-05-31T02:58:07.239Z,13.50
2018-05-31T03:00:00.077Z,13.40
2018-05-31T03:00:59.986Z,13.40
2018-05-31T03:02:52.868Z,12.80
2018-05-31T03:03:52.736Z,11.80
2018-05-31T03:05:45.593Z,12.10
2018-05-31T03:06:45.493Z,11.60
2018-05-31T03:08:38.356Z,11.40
2018-05-31T03:09:38.252Z,11.40
2018-05-31T03:11:31.098Z,12.60
2018-05-31T03:12:30.999Z,11.50
2018-05-31T03:14:23.844Z,11.70
2018-05-31T03:15:23.740Z,12.10
2018-05-31T03:17:16.591Z,11.60
2018-05-31T03:18:16.486Z,12.00
2018-05-31T03:20:09.482Z,11.60
2018-05-31T03:21:09.252Z,12.50
2018-05-31T03:23:02.091Z,11.50
2018-05-31T03:24:01.982Z,12.20
2018-05-31T03:25:54.853Z,13.20
2018-05-31T03:26:54.749Z,13.70
2018-05-31T03:28:47.753Z,13.40
2018-05-31T03:29:47.514Z,12.40
2018-05-31T03:31:40.334Z,12.60
2018-05-31T03:32:40.240Z,13.40
2018-05-31T03:34:33.114Z,13.50
2018-05-31T03:35:33.007Z,13.70
2018-05-31T03:37:25.819Z,13.60
2018-05-31T03:38:25.722Z,13.40
2018-05-31T03:40:18.622Z,13.50
2018-05-31T03:41:18.495Z,13.10
2018-05-31T03:43:11.861Z,13.10
2018-05-31T03:44:11.223Z,12.90
2018-05-31T03:46:04.101Z,12.20
2018-05-31T03:47:03.995Z,12.10
2018-05-31T03:48:56.718Z,12.50
2018-05-31T03:49:56.623Z,12.40
2018-05-31T03:51:49.506Z,11.50
2018-05-31T03:52:49.388Z,11.90
2018-05-31T03:54:42.246Z,12.00
2018-05-31T03:55:42.125Z,11.10
2018-05-31T03:57:34.990Z,12.50
2018-05-31T03:58:34.873Z,12.60
2018-05-31T04:00:27.749Z,12.70
2018-05-31T04:01:27.655Z,12.70
2018-05-31T04:03:20.507Z,15.60
2018-05-31T04:04:20.395Z,13.30
2018-05-31T04:06:13.144Z,12.60
2018-05-31T04:07:13.026Z,12.70
2018-05-31T04:09:05.858Z,13.00
2018-05-31T04:10:05.764Z,13.50
2018-05-31T04:11:58.630Z,12.80
2018-05-31T04:12:58.521Z,13.50
2018-05-31T04:14:51.281Z,17.30
2018-05-31T04:15:51.187Z,15.60
2018-05-31T04:17:44.009Z,13.40
2018-05-31T04:18:43.917Z,12.40
2018-05-31T04:20:37.270Z,12.70
2018-05-31T04:21:36.663Z,12.80
2018-05-31T04:23:29.539Z,12.60
2018-05-31T04:24:29.443Z,13.40
2018-05-31T04:26:22.271Z,13.10
2018-05-31T04:27:22.178Z,12.40
2018-05-31T04:29:15.579Z,12.80
2018-05-31T04:30:15.427Z,11.50
2018-05-31T04:32:08.303Z,12.30
2018-05-31T04:33:08.183Z,12.10
2018-05-31T04:35:01.042Z,11.90
2018-05-31T04:36:01.024Z,11.30
2018-05-31T04:37:53.788Z,11.70
2018-05-31T04:38:53.671Z,13.30
2018-05-31T04:40:46.537Z,12.90
2018-05-31T04:41:46.433Z,12.80
2018-05-31T04:43:39.296Z,12.70
2018-05-31T04:44:39.182Z,12.10
2018-05-31T04:46:32.023Z,12.70
2018-05-31T04:47:31.935Z,12.90
2018-05-31T04:49:24.700Z,12.40
2018-05-31T04:50:24.574Z,12.50
2018-05-31T04:52:17.408Z,13.10
2018-05-31T04:53:17.318Z,12.80
2018-05-31T04:55:10.168Z,13.10
2018-05-31T04:56:10.064Z,13.40
2018-05-31T04:58:02.925Z,12.30
2018-05-31T04:59:02.825Z,12.20
2018-05-31T05:00:56.088Z,11.60
2018-05-31T05:01:55.981Z,11.60
2018-05-31T05:03:48.813Z,12.00
2018-05-31T05:04:48.732Z,11.90
2018-05-31T05:06:41.609Z,11.90
2018-05-31T05:07:41.483Z,12.10
2018-05-31T05:09:34.332Z,11.80
2018-05-31T05:10:34.224Z,11.60
2018-05-31T05:12:27.081Z,11.40
2018-05-31T05:13:26.985Z,11.50
2018-05-31T05:15:19.822Z,12.20
2018-05-31T05:16:19.721Z,11.30
2018-05-31T05:18:12.575Z,11.20
2018-05-31T05:19:12.478Z,11.70
2018-05-31T05:21:05.328Z,11.30
2018-05-31T05:22:05.272Z,11.60
2018-05-31T05:23:58.157Z,11.70
2018-05-31T05:24:57.973Z,12.10
2018-05-31T05:26:50.859Z,11.80
2018-05-31T05:27:50.721Z,11.10
2018-05-31T05:29:43.570Z,11.50
2018-05-31T05:30:43.492Z,11.40
2018-05-31T05:32:36.348Z,11.20
2018-05-31T05:33:36.240Z,11.40
2018-05-31T05:35:29.083Z,12.00
2018-05-31T05:36:28.989Z,11.20
2018-05-31T05:38:21.823Z,11.60
2018-05-31T05:39:21.734Z,10.90
2018-05-31T05:41:14.566Z,11.00
2018-05-31T05:42:14.465Z,10.90
2018-05-31T05:44:07.346Z,11.30
2018-05-31T05:45:07.224Z,11.10
2018-05-31T05:47:00.082Z,11.10
2018-05-31T05:47:59.982Z,10.50
2018-05-31T05:49:52.845Z,10.20
2018-05-31T05:50:52.731Z,10.80
2018-05-31T05:52:45.573Z,11.20
2018-05-31T05:53:45.470Z,10.70
2018-05-31T05:55:38.315Z,10.00
2018-05-31T05:56:38.221Z,10.50
2018-05-31T05:58:31.075Z,10.10
2018-05-31T05:59:30.963Z,10.70
2018-05-31T06:01:23.816Z,9.90
2018-05-31T06:02:23.716Z,10.20
2018-05-31T06:04:16.611Z,10.20
2018-05-31T06:05:16.475Z,9.90
2018-05-31T06:07:09.322Z,10.20
2018-05-31T06:08:09.212Z,10.60
2018-05-31T06:10:02.135Z,10.70
2018-05-31T06:11:01.996Z,10.30
2018-05-31T06:12:54.821Z,10.00
2018-05-31T06:13:54.723Z,10.40
2018-05-31T06:15:47.992Z,10.20
2018-05-31T06:16:47.884Z,10.00
2018-05-31T06:18:40.721Z,10.40
2018-05-31T06:19:40.658Z,10.90
2018-05-31T06:21:33.552Z,10.10
2018-05-31T06:22:33.398Z,10.00
2018-05-31T06:24:26.230Z,10.30
2018-05-31T06:25:26.128Z,10.00
2018-05-31T06:27:18.996Z,10.30
2018-05-31T06:28:18.894Z,10.00
2018-05-31T06:30:11.737Z,9.80
2018-05-31T06:31:11.634Z,10.20
2018-05-31T06:33:04.463Z,12.10
2018-05-31T06:34:04.379Z,10.00
2018-05-31T06:35:57.232Z,11.30
2018-05-31T06:36:57.125Z,10.20
2018-05-31T06:38:49.967Z,10.20
2018-05-31T06:39:49.883Z,10.20
2018-05-31T06:41:42.735Z,10.40
2018-05-31T06:42:42.648Z,9.50
2018-05-31T06:44:35.457Z,11.30
2018-05-31T06:45:35.377Z,10.40
2018-05-31T06:47:28.246Z,11.30
2018-05-31T06:48:28.139Z,10.50
2018-05-31T06:50:20.957Z,11.60
2018-05-31T06:51:20.883Z,13.00
2018-05-31T06:53:13.736Z,10.50
2018-05-31T06:54:13.636Z,10.60
2018-05-31T06:56:06.469Z,10.00
2018-05-31T06:57:06.388Z,10.60
2018-05-31T06:58:59.249Z,10.40
2018-05-31T06:59:59.134Z,10.40
2018-05-31T07:01:51.979Z,10.40
2018-05-31T07:02:51.870Z,11.20
2018-05-31T07:04:44.705Z,10.00
2018-05-31T07:05:44.624Z,9.90
2018-05-31T07:07:37.476Z,9.70
2018-05-31T07:08:37.414Z,9.60
2018-05-31T07:10:30.216Z,10.40
2018-05-31T07:11:30.117Z,10.90
2018-05-31T07:13:23.013Z,10.70
2018-05-31T07:14:22.922Z,11.90
2018-05-31T07:16:15.727Z,9.50
2018-05-31T07:17:15.627Z,10.60
2018-05-31T07:19:08.496Z,9.90
2018-05-31T07:20:08.372Z,11.20
2018-05-31T07:22:01.271Z,10.20
2018-05-31T07:23:01.159Z,9.90
2018-05-31T07:24:54.081Z,9.70
2018-05-31T07:25:54.006Z,12.70
2018-05-31T07:27:46.810Z,9.50
2018-05-31T07:28:46.742Z,10.30
2018-05-31T07:30:39.711Z,10.60
2018-05-31T07:31:39.601Z,10.80
2018-05-31T07:33:32.539Z,11.00
2018-05-31T07:34:32.497Z,11.30
2018-05-31T07:36:25.381Z,10.60
2018-05-31T07:37:25.286Z,11.40
2018-05-31T07:39:18.120Z,10.80
2018-05-31T07:40:18.042Z,11.60
2018-05-31T07:42:10.880Z,11.40
2018-05-31T07:43:10.788Z,11.80
2018-05-31T07:45:03.652Z,10.90
2018-05-31T07:46:03.534Z,12.50
2018-05-31T07:47:56.365Z,10.70
2018-05-31T07:48:56.285Z,10.60
2018-05-31T07:50:49.242Z,11.10
2018-05-31T07:51:49.162Z,10.30
2018-05-31T07:53:41.964Z,10.70
2018-05-31T07:54:41.886Z,11.20
2018-05-31T07:56:34.735Z,10.70
2018-05-31T07:57:34.635Z,11.00
2018-05-31T07:59:27.476Z,10.90
2018-05-31T08:00:27.379Z,11.10
2018-05-31T08:02:20.251Z,10.40
2018-05-31T08:03:20.128Z,9.50
2018-05-31T08:05:12.987Z,9.40
2018-05-31T08:06:12.896Z,9.40
2018-05-31T08:08:05.738Z,9.40
2018-05-31T08:09:05.654Z,9.10
2018-05-31T08:10:58.483Z,7.90
2018-05-31T08:11:58.377Z,8.90
2018-05-31T08:13:51.342Z,8.90
2018-05-31T08:14:51.130Z,8.50
2018-05-31T08:16:43.987Z,8.30
2018-05-31T08:17:43.884Z,8.90
2018-05-31T08:19:36.747Z,7.70
2018-05-31T08:20:36.634Z,8.00
2018-05-31T08:22:29.545Z,9.20
2018-05-31T08:23:29.396Z,7.90
2018-05-31T08:25:22.255Z,8.20
2018-05-31T08:26:22.145Z,8.10
2018-05-31T08:28:14.976Z,9.40
2018-05-31T08:29:14.885Z,9.00
2018-05-31T08:31:07.742Z,8.00
2018-05-31T08:32:07.651Z,8.00
2018-05-31T08:34:00.473Z,8.70
2018-05-31T08:35:00.382Z,8.10
2018-05-31T08:36:53.233Z,8.00
2018-05-31T08:37:53.141Z,9.30
2018-05-31T08:39:45.962Z,8.60
2018-05-31T08:40:45.877Z,10.00
2018-05-31T08:42:38.750Z,11.20
2018-05-31T08:43:38.631Z,10.40
2018-05-31T08:45:32.005Z,10.70
2018-05-31T08:46:31.897Z,10.00
2018-05-31T08:48:24.781Z,9.80
2018-05-31T08:49:24.642Z,9.50
2018-05-31T08:51:17.480Z,9.40
2018-05-31T08:52:17.386Z,10.30
2018-05-31T08:54:10.248Z,9.20
2018-05-31T08:55:10.138Z,9.30
2018-05-31T08:57:03.489Z,10.40
2018-05-31T08:58:03.407Z,9.60
2018-05-31T08:59:57.183Z,9.00
2018-05-31T09:00:56.149Z,9.80
2018-05-31T09:02:48.974Z,9.10
2018-05-31T09:03:48.903Z,9.10
2018-05-31T09:05:41.766Z,9.90
2018-05-31T09:06:41.659Z,9.70
2018-05-31T09:08:34.478Z,9.20
2018-05-31T09:09:34.403Z,9.90
2018-05-31T09:11:27.278Z,10.20
2018-05-31T09:12:27.140Z,10.30
2018-05-31T09:14:19.983Z,10.10
2018-05-31T09:15:19.896Z,9.70
2018-05-31T09:17:12.757Z,9.20
2018-05-31T09:18:12.656Z,10.10
2018-05-31T09:20:05.493Z,9.40
2018-05-31T09:21:05.411Z,9.40
2018-05-31T09:22:58.781Z,9.70
2018-05-31T09:23:58.147Z,9.80
2018-05-31T09:25:50.978Z,10.30
2018-05-31T09:26:50.899Z,9.70
2018-05-31T09:28:46.828Z,9.00
2018-05-31T09:29:46.616Z,10.00
2018-05-31T09:31:40.506Z,9.30
2018-05-31T09:32:40.395Z,9.40
2018-05-31T09:34:33.281Z,9.30
2018-05-31T09:35:33.133Z,9.30
2018-05-31T09:37:25.988Z,9.50
2018-05-31T09:38:25.887Z,10.50
2018-05-31T09:40:18.961Z,11.00
2018-05-31T09:41:18.839Z,10.20
2018-05-31T09:43:11.674Z,10.40
2018-05-31T09:44:11.589Z,10.60
2018-05-31T09:46:04.457Z,12.30
2018-05-31T09:47:04.352Z,11.90
2018-05-31T09:48:57.170Z,10.20
2018-05-31T09:49:57.098Z,10.80
2018-05-31T09:51:49.952Z,10.10
2018-05-31T09:52:49.848Z,11.20
2018-05-31T09:54:42.666Z,11.00
2018-05-31T09:55:42.626Z,10.70
2018-05-31T09:57:35.450Z,10.90
2018-05-31T09:58:35.342Z,11.00
2018-05-31T10:00:28.204Z,11.00
2018-05-31T10:01:28.106Z,11.90
2018-05-31T10:03:20.947Z,10.50
2018-05-31T10:04:20.845Z,10.60
2018-05-31T10:06:13.699Z,10.70
2018-05-31T10:07:13.599Z,11.90
2018-05-31T10:09:06.456Z,11.80
2018-05-31T10:10:06.372Z,11.80
2018-05-31T10:11:59.680Z,11.90
2018-05-31T10:12:59.639Z,12.00
2018-05-31T10:14:52.966Z,11.80
2018-05-31T10:15:52.875Z,13.20
2018-05-31T10:17:45.804Z,11.90
2018-05-31T10:18:45.612Z,11.00
2018-05-31T10:20:38.499Z,11.80
2018-05-31T10:21:38.408Z,11.50
2018-05-31T10:23:31.273Z,12.40
2018-05-31T10:24:31.109Z,13.20
2018-05-31T10:26:24.668Z,12.50
2018-05-31T10:27:24.574Z,12.40
2018-05-31T10:29:17.427Z,13.00
2018-05-31T10:30:17.337Z,12.90
2018-05-31T10:32:10.301Z,13.40
2018-05-31T10:33:10.167Z,13.90
2018-05-31T10:35:03.021Z,13.80
2018-05-31T10:36:03.098Z,13.50
2018-05-31T10:37:55.789Z,13.70
2018-05-31T10:38:55.677Z,13.50
2018-05-31T10:40:48.511Z,13.00
2018-05-31T10:41:48.424Z,12.90
2018-05-31T10:43:41.288Z,13.70
2018-05-31T10:44:41.175Z,12.50
2018-05-31T10:46:34.099Z,12.70
2018-05-31T10:47:33.937Z,16.00
2018-05-31T10:49:26.754Z,15.40
2018-05-31T10:50:26.683Z,15.70
2018-05-31T10:52:19.517Z,15.60
2018-05-31T10:53:19.426Z,16.70
2018-05-31T10:55:12.253Z,16.20
2018-05-31T10:56:12.182Z,16.40
2018-05-31T10:58:05.045Z,17.40
2018-05-31T10:59:04.929Z,16.90
2018-05-31T11:00:58.276Z,18.90
2018-05-31T11:01:57.677Z,18.70
2018-05-31T11:03:50.514Z,19.70
2018-05-31T11:04:50.424Z,19.10
2018-05-31T11:06:44.193Z,19.10
2018-05-31T11:07:43.165Z,20.70
2018-05-31T11:09:36.537Z,20.20
2018-05-31T11:10:36.474Z,21.20
2018-05-31T11:12:29.270Z,21.30
2018-05-31T11:13:29.184Z,20.20
2018-05-31T11:15:22.051Z,19.00
2018-05-31T11:16:21.933Z,17.70
2018-05-31T11:18:14.779Z,16.00
2018-05-31T11:19:14.712Z,16.60
2018-05-31T11:21:07.516Z,17.00
2018-05-31T11:22:07.437Z,17.20
2018-05-31T11:24:00.308Z,17.80
2018-05-31T11:25:00.177Z,18.90
2018-05-31T11:26:53.033Z,17.10
2018-05-31T11:27:52.933Z,17.60
2018-05-31T11:29:45.885Z,17.00
2018-05-31T11:30:45.801Z,17.00
2018-05-31T11:32:38.718Z,15.90
2018-05-31T11:33:38.625Z,16.60
2018-05-31T11:35:32.048Z,16.40
2018-05-31T11:36:31.893Z,15.60
2018-05-31T11:38:24.854Z,16.90
2018-05-31T11:39:24.743Z,18.00
2018-05-31T11:41:17.615Z,17.60
2018-05-31T11:42:17.492Z,16.30
2018-05-31T11:44:10.839Z,16.20
2018-05-31T11:45:10.870Z,15.60
2018-05-31T11:47:03.616Z,16.40
2018-05-31T11:48:03.500Z,16.40
2018-05-31T11:49:56.442Z,16.70
2018-05-31T11:50:56.349Z,16.60
2018-05-31T11:52:49.715Z,16.50
2018-05-31T11:53:49.639Z,16.80
2018-05-31T11:55:42.502Z,17.50
2018-05-31T11:56:42.370Z,17.60
2018-05-31T11:58:35.206Z,17.10
2018-05-31T11:59:35.136Z,15.80
2018-05-31T12:01:27.984Z,15.10
2018-05-31T12:02:27.862Z,15.30
2018-05-31T12:04:20.715Z,15.20
2018-05-31T12:05:20.684Z,15.30
2018-05-31T12:07:13.595Z,14.60
2018-05-31T12:08:13.499Z,14.80
2018-05-31T12:10:06.307Z,15.30
2018-05-31T12:11:06.219Z,14.50
2018-05-31T12:12:59.089Z,22.10
2018-05-31T12:13:59.001Z,22.80
2018-05-31T12:15:51.941Z,15.70
2018-05-31T12:16:51.847Z,15.30
2018-05-31T12:18:44.767Z,14.20
2018-05-31T12:19:44.673Z,14.30
2018-05-31T12:21:38.042Z,14.80
2018-05-31T12:22:37.984Z,13.70
2018-05-31T12:24:30.891Z,15.70
2018-05-31T12:25:30.844Z,15.70
2018-05-31T12:27:23.797Z,15.00
2018-05-31T12:28:23.647Z,15.10
2018-05-31T12:30:16.601Z,15.90
2018-05-31T12:31:16.488Z,15.30
2018-05-31T12:33:09.342Z,18.90
2018-05-31T12:34:09.269Z,16.50
2018-05-31T12:36:02.599Z,13.70
2018-05-31T12:37:01.985Z,13.00
2018-05-31T12:38:54.852Z,12.60
2018-05-31T12:39:54.733Z,13.00
2018-05-31T12:41:47.671Z,12.50
2018-05-31T12:42:47.591Z,13.20
2018-05-31T12:44:40.450Z,12.80
2018-05-31T12:45:40.335Z,12.70
2018-05-31T12:47:33.275Z,25.70
2018-05-31T12:48:33.189Z,33.70
2018-05-31T12:50:26.038Z,12.50
2018-05-31T12:51:25.936Z,12.90
2018-05-31T12:53:18.772Z,11.90
2018-05-31T12:54:18.692Z,11.90
2018-05-31T12:56:11.648Z,10.70
2018-05-31T12:57:11.542Z,12.30
2018-05-31T12:59:04.383Z,32.20
2018-05-31T13:00:04.307Z,10.50
2018-05-31T13:01:57.241Z,12.50
2018-05-31T13:02:57.149Z,16.50
2018-05-31T13:04:50.092Z,12.50
2018-05-31T13:05:50.071Z,12.40
2018-05-31T13:07:42.953Z,13.00
2018-05-31T13:08:42.855Z,12.50
2018-05-31T13:10:35.807Z,9.50
2018-05-31T13:11:35.703Z,9.40
2018-05-31T13:13:28.641Z,9.40
2018-05-31T13:14:28.579Z,11.20
2018-05-31T13:16:21.516Z,12.30
2018-05-31T13:17:21.422Z,13.60
2018-05-31T13:19:15.775Z,12.90
2018-05-31T13:20:14.249Z,15.50
2018-05-31T13:22:10.388Z,11.80
2018-05-31T13:23:10.207Z,13.20
2018-05-31T13:25:04.057Z,10.20
2018-05-31T13:26:03.969Z,10.60
2018-05-31T13:27:56.932Z,11.80
2018-05-31T13:28:56.798Z,11.50
2018-05-31T13:30:49.787Z,10.40
2018-05-31T13:31:49.667Z,10.80
2018-05-31T13:33:42.621Z,10.40
2018-05-31T13:34:42.516Z,9.90
2018-05-31T13:36:37.106Z,10.00
2018-05-31T13:37:37.013Z,9.90
2018-05-31T13:39:29.958Z,10.30
2018-05-31T13:40:29.869Z,10.50
2018-05-31T13:42:23.219Z,21.20
2018-05-31T13:43:23.129Z,10.90
2018-05-31T13:45:16.068Z,10.00
2018-05-31T13:46:15.977Z,9.80
2018-05-31T13:48:08.930Z,9.40
2018-05-31T13:49:08.829Z,9.60
2018-05-31T13:51:01.756Z,8.80
2018-05-31T13:52:01.666Z,8.50
2018-05-31T13:53:54.622Z,7.40
2018-05-31T13:54:54.515Z,7.50
2018-05-31T13:56:47.477Z,16.80
2018-05-31T13:57:47.382Z,19.50
2018-05-31T13:59:40.338Z,7.70
2018-05-31T14:00:40.249Z,6.90
2018-05-31T14:02:33.181Z,7.20
2018-05-31T14:03:33.076Z,7.60
2018-05-31T14:05:27.157Z,7.00
2018-05-31T14:06:27.062Z,6.90
2018-05-31T14:08:20.017Z,6.80
2018-05-31T14:09:19.915Z,6.80
2018-05-31T14:11:12.852Z,6.80
2018-05-31T14:12:12.757Z,6.10
2018-05-31T14:14:05.745Z,6.40
2018-05-31T14:15:05.638Z,12.10
2018-05-31T14:16:58.571Z,9.60
2018-05-31T14:17:58.477Z,6.60
2018-05-31T14:19:51.436Z,6.20
2018-05-31T14:20:51.333Z,6.30
2018-05-31T14:22:44.266Z,6.50
2018-05-31T14:23:44.171Z,7.80
2018-05-31T14:25:37.142Z,6.50
2018-05-31T14:26:37.031Z,7.00
2018-05-31T14:28:30.389Z,7.00
2018-05-31T14:29:29.886Z,7.50
2018-05-31T14:31:22.844Z,7.40
2018-05-31T14:32:22.720Z,7.00
2018-05-31T14:34:15.676Z,7.20
2018-05-31T14:35:15.575Z,6.60
2018-05-31T14:37:08.528Z,7.90
2018-05-31T14:38:08.441Z,7.80
2018-05-31T14:40:01.373Z,7.30
2018-05-31T14:41:01.283Z,7.40
2018-05-31T14:42:54.754Z,8.20
2018-05-31T14:43:54.653Z,7.90
2018-05-31T14:45:47.579Z,7.80
2018-05-31T14:46:47.511Z,8.30
2018-05-31T14:48:40.449Z,9.10
2018-05-31T14:49:40.351Z,9.20
2018-05-31T14:51:33.310Z,10.00
2018-05-31T14:52:33.200Z,10.70
2018-05-31T14:54:26.171Z,10.80
2018-05-31T14:55:26.059Z,10.70
2018-05-31T14:57:19.012Z,10.10
2018-05-31T14:58:18.909Z,10.60
2018-05-31T15:00:11.859Z,10.80
2018-05-31T15:01:11.752Z,10.40
2018-05-31T15:03:04.704Z,10.10
2018-05-31T15:04:04.636Z,9.30
2018-05-31T15:05:57.537Z,9.20
2018-05-31T15:06:57.462Z,8.90
2018-05-31T15:08:50.442Z,10.20
2018-05-31T15:09:50.311Z,10.00
2018-05-31T15:11:43.248Z,10.20
2018-05-31T15:12:43.175Z,10.10
2018-05-31T15:14:36.225Z,10.10
2018-05-31T15:15:36.141Z,10.60
2018-05-31T15:17:29.057Z,11.20
2018-05-31T15:18:28.975Z,10.70
2018-05-31T15:20:21.979Z,10.60
2018-05-31T15:21:21.835Z,10.50
2018-05-31T15:23:15.283Z,10.60
2018-05-31T15:24:15.279Z,11.00
2018-05-31T15:26:08.179Z,10.90
2018-05-31T15:27:08.043Z,10.30
2018-05-31T15:29:00.978Z,10.50
2018-05-31T15:30:00.889Z,10.90
2018-05-31T15:31:53.826Z,11.50
2018-05-31T15:32:53.741Z,12.30
2018-05-31T15:34:46.704Z,11.50
2018-05-31T15:35:46.598Z,12.20
2018-05-31T15:37:39.535Z,12.30
2018-05-31T15:38:39.475Z,12.80
2018-05-31T15:40:32.827Z,12.20
2018-05-31T15:41:32.299Z,11.30
2018-05-31T15:43:25.286Z,11.00
2018-05-31T15:44:25.229Z,11.90
2018-05-31T15:46:18.098Z,11.40
2018-05-31T15:47:18.007Z,11.90
2018-05-31T15:49:10.948Z,12.10
2018-05-31T15:50:10.858Z,12.20
2018-05-31T15:52:03.812Z,12.10
2018-05-31T15:53:03.722Z,12.20
2018-05-31T15:54:56.644Z,12.60
2018-05-31T15:55:56.575Z,12.90
2018-05-31T15:57:49.505Z,12.00
2018-05-31T15:58:49.413Z,12.70
2018-05-31T16:00:42.360Z,10.70
2018-05-31T16:01:42.275Z,10.40
2018-05-31T16:03:35.222Z,10.40
2018-05-31T16:04:35.113Z,10.00
2018-05-31T16:06:28.069Z,10.90
2018-05-31T16:07:27.970Z,9.90
2018-05-31T16:09:20.914Z,9.70
2018-05-31T16:10:20.818Z,10.50
2018-05-31T16:12:13.771Z,10.70
2018-05-31T16:13:13.669Z,10.20
2018-05-31T16:15:06.599Z,10.10
2018-05-31T16:16:06.559Z,9.70
2018-05-31T16:17:59.573Z,9.50
2018-05-31T16:18:59.377Z,9.70
2018-05-31T16:20:52.302Z,8.80
2018-05-31T16:21:52.223Z,10.00
2018-05-31T16:23:45.227Z,9.90
2018-05-31T16:24:45.104Z,11.30
2018-05-31T16:26:38.005Z,9.30
2018-05-31T16:27:37.860Z,10.80
2018-05-31T16:29:30.686Z,9.80
2018-05-31T16:30:30.580Z,10.00
2018-05-31T16:32:23.551Z,8.90
2018-05-31T16:33:23.427Z,8.80
2018-05-31T16:35:16.308Z,9.50
2018-05-31T16:36:16.187Z,8.80
2018-05-31T16:38:09.055Z,16.00
2018-05-31T16:39:08.932Z,12.20
2018-05-31T16:41:01.812Z,13.70
2018-05-31T16:42:01.765Z,17.50
2018-05-31T16:43:55.221Z,9.20
2018-05-31T16:44:54.435Z,9.00
2018-05-31T16:46:47.763Z,8.40
2018-05-31T16:47:47.683Z,8.90
2018-05-31T16:49:40.546Z,8.80
2018-05-31T16:50:40.439Z,9.00
2018-05-31T16:52:33.267Z,8.90
2018-05-31T16:53:33.188Z,8.80
2018-05-31T16:55:27.261Z,9.50
2018-05-31T16:56:27.162Z,8.90
2018-05-31T16:58:20.059Z,8.70
2018-05-31T16:59:19.937Z,8.60
2018-05-31T17:01:12.762Z,8.90
2018-05-31T17:02:12.672Z,8.90
2018-05-31T17:04:05.522Z,8.60
2018-05-31T17:05:05.425Z,8.80
2018-05-31T17:06:58.247Z,9.60
2018-05-31T17:07:58.163Z,9.60
2018-05-31T17:09:51.118Z,8.60
2018-05-31T17:10:50.913Z,8.50
2018-05-31T17:12:43.762Z,8.80
2018-05-31T17:13:43.655Z,8.90
2018-05-31T17:15:36.702Z,8.70
2018-05-31T17:16:36.580Z,10.30
2018-05-31T17:18:29.267Z,9.00
2018-05-31T17:19:29.181Z,8.70
2018-05-31T17:21:22.009Z,9.00
2018-05-31T17:22:21.920Z,9.00
2018-05-31T17:24:14.823Z,9.20
2018-05-31T17:25:14.661Z,9.20
2018-05-31T17:27:07.509Z,8.40
2018-05-31T17:28:07.412Z,9.30
2018-05-31T17:30:00.269Z,9.40
2018-05-31T17:31:00.163Z,9.40
2018-05-31T17:32:52.994Z,9.70
2018-05-31T17:33:52.902Z,9.80
2018-05-31T17:35:46.285Z,10.00
2018-05-31T17:36:46.183Z,10.00
2018-05-31T17:38:39.023Z,9.90
2018-05-31T17:39:38.941Z,11.30
2018-05-31T17:41:31.768Z,9.90
2018-05-31T17:42:31.668Z,10.30
2018-05-31T17:44:24.493Z,10.50
2018-05-31T17:45:24.425Z,10.50
2018-05-31T17:47:17.291Z,10.80
2018-05-31T17:48:17.193Z,10.70
2018-05-31T17:50:10.099Z,10.20
2018-05-31T17:51:10.013Z,10.40
2018-05-31T17:53:02.893Z,10.40
2018-05-31T17:54:02.770Z,10.40
2018-05-31T17:55:55.604Z,15.60
2018-05-31T17:56:55.521Z,12.90
2018-05-31T17:58:48.365Z,11.60
2018-05-31T17:59:48.274Z,11.20
2018-05-31T18:01:41.154Z,11.00
2018-05-31T18:02:41.047Z,10.40
2018-05-31T18:04:34.371Z,10.70
2018-05-31T18:05:34.282Z,11.00
2018-05-31T18:07:27.128Z,11.20
2018-05-31T18:08:27.033Z,11.30
2018-05-31T18:10:19.903Z,12.30
2018-05-31T18:11:19.780Z,12.00
2018-05-31T18:13:12.622Z,11.90
2018-05-31T18:14:12.529Z,11.50
2018-05-31T18:16:05.367Z,11.40
2018-05-31T18:17:05.286Z,11.10
2018-05-31T18:18:58.166Z,11.90
2018-05-31T18:19:58.027Z,11.30
2018-05-31T18:21:50.870Z,12.00
2018-05-31T18:22:50.790Z,11.30
2018-05-31T18:24:43.623Z,11.60
2018-05-31T18:25:43.529Z,12.20
2018-05-31T18:27:36.380Z,14.70
2018-05-31T18:28:36.274Z,14.00
2018-05-31T18:30:29.128Z,14.40
2018-05-31T18:31:29.055Z,69.30
2018-05-31T18:33:21.873Z,34.50
2018-05-31T18:34:21.784Z,17.60
2018-05-31T18:36:14.673Z,14.00
2018-05-31T18:37:14.587Z,13.80
2018-05-31T18:39:07.361Z,14.10
2018-05-31T18:40:07.311Z,13.70
2018-05-31T18:42:00.137Z,14.00